Terminal Aerodrome Forecast
Issued by NWS

Home | Current Version | Previous Version | Text Only | Print | Product List | Glossary On
Versions: 1 2 3 4 5 6 7 8 9 10
000
FTUS46 KSEW 280500 RRA
TAFBFI
TAF
KBFI 280535Z 2806/2906 00000KT P6SM VCSH BKN020
     FM281000 21007KT P6SM OVC018
     FM281500 15004KT P6SM OVC023
     FM282100 33006KT P6SM BKN030
     FM290000 05005KT P6SM BKN060=

USA.gov is the U.S. government's official web portal to all federal, state and local government web resources and services.